createdAt,value
2022-09-14T00:01:44.248Z,55.95
2022-09-14T00:04:16.497Z,56.21
2022-09-14T00:06:45.652Z,56.36
2022-09-14T00:09:20.195Z,56.13
2022-09-14T00:11:50.659Z,56.24
2022-09-14T00:14:20.445Z,56.41
2022-09-14T00:16:49.114Z,56.53
2022-09-14T00:19:21.586Z,56.61
2022-09-14T00:21:53.529Z,56.43
2022-09-14T00:24:22.668Z,56.82
2022-09-14T00:26:52.758Z,56.79
2022-09-14T00:29:21.217Z,56.50
2022-09-14T00:31:49.647Z,56.58
2022-09-14T00:34:19.141Z,56.67
2022-09-14T00:36:50.507Z,57.06
2022-09-14T00:39:21.475Z,57.17
2022-09-14T00:41:53.035Z,57.13
2022-09-14T00:44:59.995Z,56.80
2022-09-14T00:47:29.918Z,57.32
2022-09-14T00:49:59.003Z,57.48
2022-09-14T00:52:30.198Z,57.50
2022-09-14T00:55:02.658Z,57.67
2022-09-14T00:57:38.639Z,57.32
2022-09-14T01:00:11.420Z,57.65
2022-09-14T01:02:40.476Z,57.57
2022-09-14T01:05:11.529Z,57.34
2022-09-14T01:08:10.257Z,57.20
2022-09-14T01:11:01.827Z,57.46
2022-09-14T01:13:43.283Z,57.18
2022-09-14T01:16:24.090Z,57.20
2022-09-14T01:18:58.166Z,57.44
2022-09-14T01:21:30.239Z,57.46
2022-09-14T01:24:07.674Z,57.60
2022-09-14T01:27:08.387Z,57.63
2022-09-14T01:29:45.895Z,57.80
2022-09-14T01:32:19.239Z,57.66
2022-09-14T01:34:50.957Z,57.75
2022-09-14T01:37:24.090Z,57.61
2022-09-14T01:39:58.254Z,57.40
2022-09-14T01:42:28.843Z,57.65
2022-09-14T01:45:01.570Z,57.73
2022-09-14T01:47:35.579Z,57.73
2022-09-14T01:50:10.918Z,57.77
2022-09-14T01:52:45.779Z,57.43
2022-09-14T01:55:20.351Z,57.63
2022-09-14T01:57:54.256Z,57.52
2022-09-14T02:00:24.409Z,57.91
2022-09-14T02:02:58.746Z,57.57
2022-09-14T02:05:33.703Z,57.81
2022-09-14T02:08:02.302Z,57.73
2022-09-14T02:10:30.807Z,57.73
2022-09-14T02:12:59.374Z,57.63
2022-09-14T02:15:29.267Z,58.13
2022-09-14T02:17:57.678Z,58.07
2022-09-14T02:20:35.264Z,57.66
2022-09-14T02:23:04.134Z,57.79
2022-09-14T02:25:33.327Z,58.11
2022-09-14T02:28:02.111Z,58.14
2022-09-14T02:30:44.516Z,57.76
2022-09-14T02:33:20.328Z,57.98
2022-09-14T02:35:52.954Z,58.16
2022-09-14T02:38:29.938Z,57.90
2022-09-14T02:41:04.419Z,57.83
2022-09-14T02:43:41.153Z,57.65
2022-09-14T02:46:18.582Z,57.83
2022-09-14T02:48:55.478Z,58.14
2022-09-14T02:51:32.117Z,58.12
2022-09-14T02:54:05.797Z,58.27
2022-09-14T02:56:35.430Z,57.96
2022-09-14T02:59:03.701Z,58.27
2022-09-14T03:01:33.369Z,58.16
2022-09-14T03:04:01.803Z,58.12
2022-09-14T03:06:30.073Z,58.21
2022-09-14T03:08:58.586Z,58.43
2022-09-14T03:11:26.934Z,58.43
2022-09-14T03:13:55.189Z,58.31
2022-09-14T03:16:23.665Z,58.56
2022-09-14T03:18:53.414Z,58.46
2022-09-14T03:21:21.670Z,58.25
2022-09-14T03:23:55.120Z,58.62
2022-09-14T03:26:25.686Z,58.56
2022-09-14T03:28:56.280Z,58.55
2022-09-14T03:31:25.302Z,58.72
2022-09-14T03:33:56.834Z,58.54
2022-09-14T03:36:27.618Z,58.36
2022-09-14T03:38:58.806Z,58.63
2022-09-14T03:41:27.504Z,58.64
2022-09-14T03:43:55.755Z,58.55
2022-09-14T03:46:26.410Z,58.49
2022-09-14T03:48:57.556Z,58.64
2022-09-14T03:51:25.804Z,58.77
2022-09-14T03:53:54.469Z,58.40
2022-09-14T03:56:23.957Z,58.64
2022-09-14T03:58:52.767Z,58.74
2022-09-14T04:01:23.919Z,58.67
2022-09-14T04:03:52.569Z,58.45
2022-09-14T04:06:22.276Z,58.51
2022-09-14T04:08:50.547Z,58.94
2022-09-14T04:11:21.704Z,58.48
2022-09-14T04:13:51.198Z,58.84
2022-09-14T04:16:21.851Z,58.38
2022-09-14T04:18:50.525Z,58.64
2022-09-14T04:21:22.809Z,59.06
2022-09-14T04:26:42.739Z,58.88
2022-09-14T04:29:12.669Z,58.96
2022-09-14T04:31:41.339Z,59.06
2022-09-14T04:34:13.305Z,58.70
2022-09-14T04:36:43.364Z,58.95
2022-09-14T04:39:14.009Z,59.15
2022-09-14T04:41:42.496Z,59.07
2022-09-14T04:44:11.015Z,58.96
2022-09-14T04:46:43.523Z,59.44
2022-09-14T04:49:14.803Z,59.09
2022-09-14T04:51:44.400Z,59.48
2022-09-14T04:54:17.597Z,59.52
2022-09-14T04:56:46.250Z,59.42
2022-09-14T04:59:15.315Z,59.61
2022-09-14T05:01:47.557Z,59.43
2022-09-14T05:04:16.392Z,59.55
2022-09-14T05:06:46.055Z,58.97
2022-09-14T05:09:16.910Z,59.15
2022-09-14T05:11:46.081Z,59.35
2022-09-14T05:14:15.751Z,59.69
2022-09-14T05:16:45.947Z,59.48
2022-09-14T05:19:17.509Z,59.78
2022-09-14T05:21:48.779Z,59.62
2022-09-14T05:24:19.303Z,59.37
2022-09-14T05:26:48.336Z,59.85
2022-09-14T05:29:19.132Z,59.85
2022-09-14T05:31:48.083Z,59.56
2022-09-14T05:34:16.549Z,60.02
2022-09-14T05:36:46.242Z,59.92
2022-09-14T05:39:14.683Z,59.92
2022-09-14T05:41:42.945Z,59.96
2022-09-14T05:44:11.255Z,59.89
2022-09-14T05:46:39.585Z,59.95
2022-09-14T05:49:08.132Z,59.83
2022-09-14T05:51:36.458Z,59.70
2022-09-14T05:54:11.477Z,59.83
2022-09-14T05:56:39.779Z,60.11
2022-09-14T05:59:08.330Z,59.78
2022-09-14T06:01:36.554Z,60.15
2022-09-14T06:04:05.479Z,60.01
2022-09-14T06:06:35.758Z,60.26
2022-09-14T06:09:05.802Z,60.41
2022-09-14T06:11:37.329Z,60.62
2022-09-14T06:14:07.490Z,60.75
2022-09-14T06:16:36.450Z,60.80
2022-09-14T06:19:04.821Z,61.16
2022-09-14T06:21:35.551Z,61.18
2022-09-14T06:24:05.678Z,61.27
2022-09-14T06:26:34.176Z,60.79
2022-09-14T06:29:02.476Z,61.08
2022-09-14T06:31:30.813Z,60.58
2022-09-14T06:33:59.475Z,60.79
2022-09-14T06:36:29.246Z,60.63
2022-09-14T06:38:58.018Z,60.51
2022-09-14T06:41:30.550Z,60.61
2022-09-14T06:44:01.680Z,60.95
2022-09-14T06:46:32.792Z,60.59
2022-09-14T06:49:04.463Z,60.57
2022-09-14T06:51:35.157Z,60.66
2022-09-14T06:54:03.877Z,60.58
2022-09-14T06:56:37.749Z,60.72
2022-09-14T06:59:07.447Z,60.65
2022-09-14T07:01:36.305Z,60.46
2022-09-14T07:04:06.256Z,60.68
2022-09-14T07:06:42.155Z,60.83
2022-09-14T07:09:10.951Z,60.54
2022-09-14T07:11:41.099Z,60.76
2022-09-14T07:14:10.294Z,60.40
2022-09-14T07:16:40.720Z,60.59
2022-09-14T07:19:13.942Z,60.58
2022-09-14T07:21:43.317Z,60.52
2022-09-14T07:24:14.887Z,60.65
2022-09-14T07:26:45.335Z,60.79
2022-09-14T07:29:16.468Z,60.86
2022-09-14T07:31:49.350Z,61.09
2022-09-14T07:34:18.246Z,61.03
2022-09-14T07:36:46.950Z,60.74
2022-09-14T07:39:17.071Z,60.64
2022-09-14T07:41:47.291Z,60.76
2022-09-14T07:44:18.491Z,60.75
2022-09-14T07:46:47.628Z,61.09
2022-09-14T07:49:17.156Z,61.18
2022-09-14T07:51:46.052Z,61.75
2022-09-14T07:54:16.872Z,61.70
2022-09-14T07:56:46.729Z,61.52
2022-09-14T07:59:36.016Z,61.54
2022-09-14T08:02:07.091Z,61.73
2022-09-14T08:04:36.694Z,61.22
2022-09-14T08:07:05.083Z,61.02
2022-09-14T08:09:33.315Z,60.80
2022-09-14T08:12:05.812Z,60.64
2022-09-14T08:14:34.350Z,60.59
2022-09-14T08:17:02.692Z,60.55
2022-09-14T08:19:30.952Z,60.00
2022-09-14T08:21:59.247Z,59.96
2022-09-14T08:24:27.522Z,59.98
2022-09-14T08:26:55.907Z,60.23
2022-09-14T08:29:25.932Z,60.04
2022-09-14T08:31:54.338Z,59.87
2022-09-14T08:34:22.591Z,59.93
2022-09-14T08:36:51.035Z,59.83
2022-09-14T08:39:19.915Z,59.88
2022-09-14T08:41:56.020Z,60.08
2022-09-14T08:44:31.512Z,60.16
2022-09-14T08:47:05.608Z,60.06
2022-09-14T08:49:51.893Z,59.87
2022-09-14T08:52:30.099Z,60.07
2022-09-14T08:55:02.139Z,60.34
2022-09-14T08:57:40.541Z,60.05
2022-09-14T09:00:15.423Z,59.46
2022-09-14T09:03:25.606Z,59.51
2022-09-14T09:06:00.124Z,59.03
2022-09-14T09:08:38.895Z,59.36
2022-09-14T09:11:15.955Z,59.16
2022-09-14T09:13:45.516Z,59.05
2022-09-14T09:16:23.100Z,58.92
2022-09-14T09:18:55.265Z,58.97
2022-09-14T09:21:28.365Z,58.44
2022-09-14T09:24:00.270Z,58.64
2022-09-14T09:26:31.419Z,58.52
2022-09-14T09:29:03.172Z,58.17
2022-09-14T09:31:36.413Z,57.76
2022-09-14T09:34:04.856Z,57.89
2022-09-14T09:36:37.403Z,58.11
2022-09-14T09:39:07.009Z,57.15
2022-09-14T09:41:45.681Z,56.36
2022-09-14T09:44:14.123Z,56.35
2022-09-14T09:46:49.881Z,55.78
2022-09-14T09:49:23.458Z,54.85
2022-09-14T09:51:53.414Z,54.20
2022-09-14T09:54:29.914Z,54.42
2022-09-14T09:57:00.667Z,53.98
2022-09-14T09:59:35.318Z,54.17
2022-09-14T10:02:29.612Z,53.76
2022-09-14T10:05:01.977Z,53.34
2022-09-14T10:07:32.931Z,53.26
2022-09-14T10:10:05.711Z,53.18
2022-09-14T10:12:34.630Z,52.94
2022-09-14T10:15:17.139Z,53.41
2022-09-14T10:18:08.938Z,53.80
2022-09-14T10:20:40.344Z,53.45
2022-09-14T10:23:27.486Z,52.95
2022-09-14T10:26:21.659Z,52.28
2022-09-14T10:28:51.826Z,50.78
2022-09-14T10:31:28.533Z,51.95
2022-09-14T10:33:59.285Z,49.70
2022-09-14T10:36:31.399Z,48.88
2022-09-14T10:39:07.954Z,48.43
2022-09-14T10:41:45.529Z,49.16
2022-09-14T10:44:45.078Z,48.35
2022-09-14T10:47:46.210Z,48.10
2022-09-14T10:50:30.139Z,48.07
2022-09-14T10:53:13.390Z,48.29
2022-09-14T10:55:50.523Z,47.80
2022-09-14T10:58:39.696Z,47.40
2022-09-14T11:01:26.239Z,47.00
2022-09-14T11:04:21.628Z,46.72
2022-09-14T11:07:01.231Z,46.12
2022-09-14T11:09:37.058Z,44.82
2022-09-14T11:12:12.861Z,45.06
2022-09-14T11:15:08.309Z,45.05
2022-09-14T11:17:55.537Z,44.80
2022-09-14T11:20:36.096Z,45.20
2022-09-14T11:23:26.755Z,45.13
2022-09-14T11:26:00.494Z,45.49
2022-09-14T11:28:34.121Z,44.80
2022-09-14T11:31:10.723Z,45.11
2022-09-14T11:33:44.644Z,45.06
2022-09-14T11:36:19.293Z,45.01
2022-09-14T11:38:53.573Z,44.96
2022-09-14T11:41:30.261Z,44.70
2022-09-14T11:44:04.179Z,44.23
2022-09-14T11:46:35.781Z,44.14
2022-09-14T11:49:16.450Z,44.55
2022-09-14T11:51:52.448Z,44.62
2022-09-14T11:54:23.995Z,45.11
2022-09-14T11:56:59.974Z,45.30
2022-09-14T11:59:50.890Z,44.82
2022-09-14T12:02:58.822Z,44.68
2022-09-14T12:05:38.651Z,45.19
2022-09-14T12:08:39.252Z,42.85
2022-09-14T12:11:32.052Z,43.90
2022-09-14T12:14:31.761Z,44.35
2022-09-14T12:17:41.343Z,43.59
2022-09-14T12:20:53.330Z,43.23
2022-09-14T12:23:27.061Z,42.70
2022-09-14T12:26:34.154Z,42.37
2022-09-14T12:29:33.902Z,40.94
2022-09-14T12:32:29.433Z,41.83
2022-09-14T12:35:48.005Z,41.03
2022-09-14T12:38:43.722Z,40.78
2022-09-14T12:42:12.482Z,40.43
2022-09-14T12:44:43.780Z,40.48
2022-09-14T12:47:57.621Z,40.89
2022-09-14T12:50:30.559Z,40.26
2022-09-14T12:53:26.875Z,41.06
2022-09-14T12:56:04.450Z,40.29
2022-09-14T12:58:56.623Z,40.28
2022-09-14T13:01:37.035Z,39.69
2022-09-14T13:04:06.388Z,39.64
2022-09-14T13:06:46.060Z,39.64
2022-09-14T13:09:21.707Z,39.68
2022-09-14T13:18:00.108Z,39.76
2022-09-14T13:20:29.263Z,39.78
2022-09-14T13:22:57.546Z,39.90
2022-09-14T13:25:34.372Z,39.99
2022-09-14T13:28:05.557Z,40.02
2022-09-14T13:30:36.017Z,40.30
2022-09-14T13:33:06.581Z,40.29
2022-09-14T13:35:39.766Z,40.30
2022-09-14T13:38:11.485Z,39.98
2022-09-14T13:40:39.721Z,40.01
2022-09-14T13:43:08.184Z,39.81
2022-09-14T13:45:37.078Z,40.35
2022-09-14T13:48:07.612Z,40.09
2022-09-14T13:50:36.218Z,40.21
2022-09-14T13:53:04.762Z,40.30
2022-09-14T13:55:45.244Z,40.34
2022-09-14T13:58:23.826Z,40.76
2022-09-14T14:01:00.600Z,40.68
2022-09-14T14:03:36.702Z,40.53
2022-09-14T14:06:22.050Z,40.47
2022-09-14T14:09:03.481Z,40.82
2022-09-14T14:11:38.253Z,40.79
2022-09-14T14:14:19.406Z,41.27
2022-09-14T14:17:24.631Z,41.30
2022-09-14T14:19:56.531Z,40.84
2022-09-14T14:22:30.075Z,41.02
2022-09-14T14:25:13.307Z,41.33
2022-09-14T14:27:46.185Z,41.70
2022-09-14T14:30:18.798Z,41.16
2022-09-14T14:32:52.063Z,41.82
2022-09-14T14:35:25.314Z,41.69
2022-09-14T14:37:54.607Z,41.14
2022-09-14T14:40:23.360Z,41.43
2022-09-14T14:42:52.830Z,42.01
2022-09-14T14:45:26.500Z,41.81
2022-09-14T14:47:56.778Z,41.75
2022-09-14T14:50:29.723Z,41.91
2022-09-14T14:52:58.598Z,41.48
2022-09-14T14:55:28.309Z,41.18
2022-09-14T14:58:01.627Z,41.23
2022-09-14T15:00:33.849Z,41.68
2022-09-14T15:03:03.008Z,41.97
2022-09-14T15:05:33.517Z,41.37
2022-09-14T15:08:02.030Z,41.80
2022-09-14T15:10:31.279Z,42.54
2022-09-14T15:12:59.581Z,42.97
2022-09-14T15:15:28.353Z,43.31
2022-09-14T15:17:56.731Z,43.60
2022-09-14T15:20:25.058Z,44.07
2022-09-14T15:22:54.738Z,43.53
2022-09-14T15:25:23.659Z,43.15
2022-09-14T15:27:52.071Z,43.26
2022-09-14T15:30:20.562Z,43.19
2022-09-14T15:32:48.881Z,43.54
2022-09-14T15:35:17.343Z,44.02
2022-09-14T15:37:45.671Z,43.38
2022-09-14T15:40:16.013Z,43.42
2022-09-14T15:42:44.459Z,43.95
2022-09-14T15:45:13.705Z,45.12
2022-09-14T15:47:43.650Z,45.57
2022-09-14T15:50:12.957Z,45.95
2022-09-14T15:52:41.591Z,45.88
2022-09-14T15:55:12.238Z,46.00
2022-09-14T15:57:42.457Z,46.77
2022-09-14T16:00:14.195Z,46.79
2022-09-14T16:02:42.968Z,47.25
2022-09-14T16:05:12.852Z,47.38
2022-09-14T16:07:41.245Z,47.49
2022-09-14T16:10:11.037Z,48.12
2022-09-14T16:12:39.317Z,48.39
2022-09-14T16:15:10.758Z,47.82
2022-09-14T16:17:39.086Z,47.07
2022-09-14T16:20:10.078Z,47.38
2022-09-14T16:22:38.477Z,47.08
2022-09-14T16:25:07.380Z,46.87
2022-09-14T16:27:35.654Z,46.97
2022-09-14T16:30:03.897Z,47.58
2022-09-14T16:32:33.578Z,46.75
2022-09-14T16:35:05.846Z,47.01
2022-09-14T16:37:36.179Z,47.16
2022-09-14T16:40:05.245Z,47.48
2022-09-14T16:42:33.603Z,47.35
2022-09-14T16:45:01.776Z,47.82
2022-09-14T16:47:29.973Z,47.79
2022-09-14T16:49:59.527Z,47.70
2022-09-14T16:52:29.720Z,48.01
2022-09-14T16:54:58.096Z,48.27
2022-09-14T16:57:27.123Z,48.48
2022-09-14T16:59:55.501Z,48.98
2022-09-14T17:02:23.822Z,48.77
2022-09-14T17:04:52.844Z,49.17
2022-09-14T17:07:23.789Z,48.81
2022-09-14T17:09:52.012Z,49.02
2022-09-14T17:12:20.233Z,48.97
2022-09-14T17:14:48.479Z,49.04
2022-09-14T17:17:16.687Z,49.37
2022-09-14T17:19:44.917Z,49.46
2022-09-14T17:22:14.124Z,49.45
2022-09-14T17:24:43.697Z,50.00
2022-09-14T17:27:12.035Z,49.79
2022-09-14T17:29:40.831Z,50.03
2022-09-14T17:32:14.032Z,49.71
2022-09-14T17:34:42.963Z,49.93
2022-09-14T17:37:11.245Z,50.22
2022-09-14T17:39:39.426Z,50.26
2022-09-14T17:42:09.378Z,50.47
2022-09-14T17:44:37.589Z,50.37
2022-09-14T17:47:06.318Z,50.33
2022-09-14T17:49:34.579Z,50.85
2022-09-14T17:52:03.432Z,50.88
2022-09-14T17:54:31.671Z,50.80
2022-09-14T17:56:59.909Z,50.71
2022-09-14T17:59:29.708Z,51.17
2022-09-14T18:01:57.961Z,51.29
2022-09-14T18:04:26.242Z,51.63
2022-09-14T18:06:54.494Z,51.68
2022-09-14T18:09:24.836Z,51.68
2022-09-14T18:11:57.111Z,51.86
2022-09-14T18:14:26.141Z,52.39
2022-09-14T18:16:59.917Z,52.38
2022-09-14T18:19:28.575Z,52.65
2022-09-14T18:21:56.914Z,52.58
2022-09-14T18:24:25.281Z,52.68
2022-09-14T18:26:54.048Z,53.06
2022-09-14T18:29:23.585Z,53.08
2022-09-14T18:31:52.917Z,52.98
2022-09-14T18:34:23.654Z,52.93
2022-09-14T18:36:53.000Z,53.01
2022-09-14T18:39:21.249Z,52.98
2022-09-14T18:41:53.700Z,53.03
2022-09-14T18:44:22.298Z,53.19
2022-09-14T18:46:51.803Z,53.12
2022-09-14T18:49:20.646Z,53.08
2022-09-14T18:51:50.266Z,52.96
2022-09-14T18:54:19.156Z,53.05
2022-09-14T18:56:47.400Z,53.05
2022-09-14T18:59:16.609Z,53.01
2022-09-14T19:01:45.307Z,52.84
2022-09-14T19:04:15.544Z,52.69
2022-09-14T19:06:44.616Z,52.67
2022-09-14T19:09:14.389Z,52.89
2022-09-14T19:11:42.730Z,52.74
2022-09-14T19:14:13.824Z,52.85
2022-09-14T19:16:43.182Z,52.72
2022-09-14T19:19:14.774Z,52.90
2022-09-14T19:21:43.374Z,52.80
2022-09-14T19:24:14.816Z,53.09
2022-09-14T19:26:45.780Z,53.11
2022-09-14T19:29:16.046Z,53.06
2022-09-14T19:31:44.539Z,53.28
2022-09-14T19:34:13.548Z,53.29
2022-09-14T19:36:41.783Z,53.42
2022-09-14T19:39:10.416Z,53.62
2022-09-14T19:41:40.299Z,53.61
2022-09-14T19:44:09.203Z,53.70
2022-09-14T19:46:39.618Z,53.73
2022-09-14T19:49:08.722Z,53.88
2022-09-14T19:51:37.090Z,54.22
2022-09-14T19:54:05.628Z,54.13
2022-09-14T19:56:34.186Z,54.27
2022-09-14T19:59:06.221Z,54.19
2022-09-14T20:01:37.584Z,54.21
2022-09-14T20:04:07.565Z,54.31
2022-09-14T20:06:40.459Z,54.64
2022-09-14T20:09:11.281Z,54.75
2022-09-14T20:11:41.590Z,54.76
2022-09-14T20:14:13.414Z,54.64
2022-09-14T20:16:44.016Z,54.75
2022-09-14T20:19:14.666Z,54.89
2022-09-14T20:21:43.980Z,54.99
2022-09-14T20:24:16.762Z,55.03
2022-09-14T20:26:46.987Z,55.07
2022-09-14T20:29:18.709Z,55.06
2022-09-14T20:31:48.132Z,55.21
2022-09-14T20:34:19.654Z,55.23
2022-09-14T20:36:49.080Z,55.16
2022-09-14T20:39:18.115Z,55.06
2022-09-14T20:41:46.427Z,55.02
2022-09-14T20:44:16.951Z,55.18
2022-09-14T20:46:47.066Z,55.08
2022-09-14T20:49:18.131Z,55.22
2022-09-14T20:51:46.821Z,55.04
2022-09-14T20:54:18.734Z,55.06
2022-09-14T20:56:47.626Z,55.10
2022-09-14T20:59:19.087Z,55.09
2022-09-14T21:01:49.461Z,55.14
2022-09-14T21:04:20.993Z,54.95
2022-09-14T21:06:53.381Z,55.27
2022-09-14T21:09:24.271Z,55.10
2022-09-14T21:11:53.123Z,54.96
2022-09-14T21:14:23.298Z,55.00
2022-09-14T21:16:55.396Z,55.05
2022-09-14T21:19:26.918Z,55.19
2022-09-14T21:21:55.805Z,55.18
2022-09-14T21:24:25.225Z,55.14
2022-09-14T21:26:53.438Z,55.02
2022-09-14T21:29:24.724Z,55.02
2022-09-14T21:31:53.582Z,55.22
2022-09-14T21:34:21.819Z,55.04
2022-09-14T21:36:52.778Z,55.16
2022-09-14T21:39:24.313Z,55.33
2022-09-14T21:41:58.434Z,55.27
2022-09-14T21:44:32.007Z,55.31
2022-09-14T21:47:00.804Z,55.05
2022-09-14T21:49:29.523Z,55.11
2022-09-14T21:51:57.787Z,55.34
2022-09-14T21:54:26.230Z,55.31
2022-09-14T21:56:54.837Z,55.82
2022-09-14T21:59:24.257Z,55.79
2022-09-14T22:01:54.430Z,55.44
2022-09-14T22:04:24.790Z,55.68
2022-09-14T22:06:53.910Z,56.04
2022-09-14T22:09:25.776Z,55.92
2022-09-14T22:11:54.845Z,56.05
2022-09-14T22:14:26.377Z,56.14
2022-09-14T22:16:56.269Z,56.15
2022-09-14T22:19:27.618Z,56.09
2022-09-14T22:21:56.570Z,56.42
2022-09-14T22:24:33.485Z,56.01
2022-09-14T22:27:05.058Z,56.33
2022-09-14T22:29:33.277Z,56.41
2022-09-14T22:32:05.552Z,56.38
2022-09-14T22:34:35.158Z,56.34
2022-09-14T22:37:03.532Z,56.53
2022-09-14T22:39:31.745Z,56.77
2022-09-14T22:42:00.067Z,56.70
2022-09-14T22:44:28.390Z,56.94
2022-09-14T22:46:56.732Z,56.99
2022-09-14T22:49:26.326Z,57.00
2022-09-14T22:51:54.517Z,57.20
2022-09-14T22:54:22.910Z,57.25
2022-09-14T22:56:51.202Z,57.17
2022-09-14T22:59:19.396Z,57.59
2022-09-14T23:01:47.670Z,57.60
2022-09-14T23:04:16.010Z,57.59
2022-09-14T23:06:47.444Z,57.77
2022-09-14T23:09:18.803Z,57.63
2022-09-14T23:11:47.520Z,57.45
2022-09-14T23:14:17.506Z,57.39
2022-09-14T23:16:46.234Z,57.61
2022-09-14T23:19:17.998Z,57.54
2022-09-14T23:21:47.744Z,57.84
2022-09-14T23:24:16.511Z,57.78
2022-09-14T23:26:44.824Z,57.88
2022-09-14T23:29:17.006Z,57.55
2022-09-14T23:31:45.414Z,57.83
2022-09-14T23:34:13.680Z,57.80
2022-09-14T23:36:42.134Z,57.88
2022-09-14T23:39:11.860Z,57.99
2022-09-14T23:41:40.732Z,58.10
2022-09-14T23:44:10.558Z,58.31
2022-09-14T23:46:38.817Z,58.34
2022-09-14T23:49:07.141Z,58.44
2022-09-14T23:51:35.881Z,58.55
2022-09-14T23:54:04.765Z,58.91
2022-09-14T23:56:34.305Z,58.74
2022-09-14T23:59:02.652Z,58.79
